Xs Moment — XP44N — position and weather

sailwx.info

Track history (hours):
 
Tides and Currents Weather Stations Pressure Air Temp Water Temp Dewpoint Dewpoint Depression Visibility Wind Speed Wind Dir Waves Ship Positions

Xs Moment

Last reported at 2018-Apr-28 05:09 UTC. Time now 2018-Jun-22 01:49 UTC.
Position S 33°39' E 151°18'.
Warning: this ship's position is 54 days out of date.

Length 13 m.

Type: Sailing vessel. MMSI: 503579600.

Date/timePositionNaut miles runAvg speedWind from/ knotsBaromVisibWave heightAir tempDewpointWater temp
2018-Apr-28 05:09S 33°39' E 151°18'0 0.0
2018-Apr-28 05:00S 33°39' E 151°18'3 1.7
2018-Apr-28 03:18S 33°40' E 151°21'3 9.0
2018-Apr-28 03:00S 33°43' E 151°22'0 0.7
2018-Apr-28 02:30S 33°43' E 151°22'7 3.0
2018-Apr-28 00:09S 33°37' E 151°19'1 7.5
2018-Apr-28 00:00S 33°38' E 151°18'1 2.4
2018-Apr-27 23:27S 33°39' E 151°18'0 0.0
2018-Apr-27 06:54S 33°39' E 151°18'0 0.0
2018-Apr-27 06:30S 33°39' E 151°18'0 0.0
2018-Apr-27 06:00S 33°39' E 151°18'  
2018-Apr-21 06:11S 33°39' E 151°18'0 1.8
2018-Apr-21 05:58S 33°39' E 151°18'1 1.6
2018-Apr-21 05:30S 33°38' E 151°18'2 1.9
2018-Apr-21 04:40S 33°37' E 151°18'1 5.8
2018-Apr-21 04:30S 33°38' E 151°18'1 1.4
2018-Apr-21 03:52S 33°37' E 151°18'1 4.0
2018-Apr-21 03:30S 33°38' E 151°18'0 0.7
2018-Apr-21 03:00S 33°39' E 151°18'  
Track history (hours):
 
Tides and Currents Weather Stations Pressure Air Temp Water Temp Dewpoint Dewpoint Depression Visibility Wind Speed Wind Dir Waves Ship Positions

Xs Moment

Last reported at 2018-Apr-28 05:09 UTC. Time now 2018-Jun-22 01:49 UTC.
Position S 33°39' E 151°18'.
Warning: this ship's position is 54 days out of date.

Length 13 m.

Type: Sailing vessel. MMSI: 503579600.

Date/timePositionNaut miles runAvg speedWind from/ knotsBaromVisibWave heightAir tempDewpointWater temp
2018-Apr-28 05:09S 33°39' E 151°18'0 0.0
2018-Apr-28 05:00S 33°39' E 151°18'3 1.7
2018-Apr-28 03:18S 33°40' E 151°21'3 9.0
2018-Apr-28 03:00S 33°43' E 151°22'0 0.7
2018-Apr-28 02:30S 33°43' E 151°22'7 3.0
2018-Apr-28 00:09S 33°37' E 151°19'1 7.5
2018-Apr-28 00:00S 33°38' E 151°18'1 2.4
2018-Apr-27 23:27S 33°39' E 151°18'0 0.0
2018-Apr-27 06:54S 33°39' E 151°18'0 0.0
2018-Apr-27 06:30S 33°39' E 151°18'0 0.0
2018-Apr-27 06:00S 33°39' E 151°18'  
2018-Apr-21 06:11S 33°39' E 151°18'0 1.8
2018-Apr-21 05:58S 33°39' E 151°18'1 1.6
2018-Apr-21 05:30S 33°38' E 151°18'2 1.9
2018-Apr-21 04:40S 33°37' E 151°18'1 5.8
2018-Apr-21 04:30S 33°38' E 151°18'1 1.4
2018-Apr-21 03:52S 33°37' E 151°18'1 4.0
2018-Apr-21 03:30S 33°38' E 151°18'0 0.7
2018-Apr-21 03:00S 33°39' E 151°18'  

Dump ship's entire track history